M I D A S
Marine Information and Data Acquisition System
Tripno 1001 of the Zeeleeuw from 2005-08-04 09:37:51 to 2005-08-04 16:00:00
Back to CruiseResearch ActivitiesStationsMapUnderway DataData graphs

EquipmentUnitsComment
TimeDGPSUTC
LatitudeDGPSDM.mWGS84
LongitudeDGPSDM.mWGS84
TemperatureSBE03/SBE38deg celciusITS90
ConductivitySBE21S/mITS90
SalinitySBE21 Practical Salinity Units
ChlorophylAChelsea fluorimeterg/lCalibrated in Aceton
Missing or incorrect values are displayed as -999
Sea surface data collected by the RV Zeeleeuw from 2005-08-04 09:39:46 to 2005-08-16 12:13:05
Time Latitude Longitude Temperature Conductivity Salinity ChlorophylA
2005-08-04 09:40:51 51°13.618 2°56.023 21.9892 -999 -999 2.320016
2005-08-04 09:41:52 51°13.653 2°55.917 21.9983 -999 -999 2.320016
2005-08-04 09:42:51 51°13.677 2°55.822 19.6698 3.960005 28.048785 2.320016
2005-08-04 09:43:52 51°13.686 2°55.759 19.5683 3.824257 27.309072 2.320016
2005-08-04 09:44:51 51°13.681 2°55.755 19.6408 3.723868 26.542866 2.320016
2005-08-04 09:45:52 51°13.721 2°55.763 19.6459 3.666587 26.088504 2.320016
2005-08-04 09:46:52 51°13.783 2°55.669 19.6885 3.604755 25.582947 2.286306
2005-08-04 09:47:52 51°13.899 2°55.575 19.5749 3.629093 25.77822 2.286306
2005-08-04 09:48:52 51°14.027 2°55.486 19.5573 3.777532 27.010008 2.320016
2005-08-04 09:49:51 51°14.154 2°55.39 19.5483 3.701598 26.418473 2.320016
2005-08-04 09:50:51 51°14.282 2°55.221 19.6002 3.71351 26.505939 2.320016
2005-08-04 09:51:52 51°14.39 2°54.991 19.5455 3.868918 27.715653 2.286306
2005-08-04 09:52:52 51°14.552 2°54.845 19.4473 4.234965 30.759344 2.320016
2005-08-04 09:53:51 51°14.74 2°54.751 19.3844 4.245129 30.833116 2.286306
2005-08-04 09:54:52 51°14.934 2°54.659 19.4107 4.235692 30.799568 2.286306
2005-08-04 09:55:52 51°15.125 2°54.566 19.4023 4.251041 30.914911 2.286306
2005-08-04 09:56:52 51°15.318 2°54.472 19.4161 4.253841 30.937634 2.286306
2005-08-04 09:57:52 51°15.511 2°54.379 19.3823 4.260582 30.984855 2.286306
2005-08-04 09:58:52 51°15.698 2°54.288 19.309 4.279563 31.18302 2.286306
2005-08-04 09:59:51 51°15.885 2°54.193 19.3145 4.270126 31.166673 2.286306
2005-08-04 10:00:52 51°16.031 2°54.136 19.328 4.274171 31.167036 2.286306
2005-08-04 10:01:52 51°16.113 2°54.146 19.3511 4.279979 31.210237 2.286306
2005-08-04 10:02:52 51°16.17 2°54.19 19.3475 4.275415 31.15799 2.286306
2005-08-04 10:03:51 51°16.223 2°54.26 19.3518 4.274481 31.152139 2.286306
2005-08-04 10:04:52 51°16.259 2°54.299 19.3515 4.27334 31.140538 2.286306
2005-08-04 10:05:52 51°16.264 2°54.317 19.3482 4.271577 31.127939 2.286306
2005-08-04 10:06:52 51°16.26 2°54.332 19.3613 4.268051 31.10158 2.286306
2005-08-04 10:07:52 51°16.253 2°54.346 19.3662 4.268051 31.089991 2.286306
2005-08-04 10:08:52 51°16.24 2°54.358 19.3755 4.268673 31.091574 2.286306
2005-08-04 10:09:50 51°16.226 2°54.369 19.3699 4.267325 31.079457 2.286306
2005-08-04 10:10:51 51°16.211 2°54.379 19.3714 4.266702 31.076714 2.286306
2005-08-04 10:11:52 51°16.199 2°54.39 19.3785 4.265769 31.06797 2.286306
2005-08-04 10:12:50 51°16.187 2°54.401 19.3902 4.267428 31.075091 2.286306
2005-08-04 10:13:50 51°16.177 2°54.415 19.3997 4.276763 31.142262 2.286306
2005-08-04 10:14:50 51°16.167 2°54.431 19.4083 4.277281 31.13952 2.286306
2005-08-04 10:15:52 51°16.159 2°54.446 19.4115 4.278007 31.140203 2.286306
2005-08-04 10:16:51 51°16.151 2°54.462 19.4173 4.278214 31.137833 2.286306
2005-08-04 10:17:51 51°16.144 2°54.478 19.4186 4.278837 31.14057 2.286306
2005-08-04 10:18:51 51°16.135 2°54.495 19.4132 4.278733 31.139728 2.286306
2005-08-04 10:19:52 51°16.127 2°54.513 19.4134 4.278941 31.145469 2.286306
2005-08-04 10:20:52 51°16.117 2°54.53 19.4026 4.278941 31.145469 2.286306
2005-08-04 10:21:51 51°16.106 2°54.548 19.3872 4.278733 31.156538 2.286306
2005-08-04 10:22:52 51°16.096 2°54.566 19.3878 4.278422 31.15923 2.286306
2005-08-04 10:23:51 51°16.086 2°54.582 19.3848 4.278422 31.15923 2.286306
2005-08-04 10:24:52 51°16.075 2°54.598 19.386 4.277593 31.154226 2.286306
2005-08-04 10:25:52 51°16.065 2°54.614 19.3878 4.276244 31.141526 2.252597
2005-08-04 10:26:51 51°16.055 2°54.632 19.3895 4.274688 31.127722 2.286306
2005-08-04 10:27:52 51°16.045 2°54.65 19.3946 4.271784 31.101806 2.286306
2005-08-04 10:28:52 51°16.036 2°54.669 19.4039 4.274999 31.125036 2.286306
2005-08-04 10:29:52 51°16.026 2°54.687 19.4079 4.271369 31.089753 2.252597
2005-08-04 10:30:51 51°16.017 2°54.708 19.4137 4.272925 31.09834 2.252597
2005-08-04 10:31:52 51°16.015 2°54.735 19.4172 4.276036 31.116667 2.252597
2005-08-04 10:32:52 51°16.045 2°54.768 19.3949 4.275414 31.118559 2.252597
2005-08-04 10:33:51 51°16.082 2°54.751 19.3929 4.273029 31.114236 2.286306
2005-08-04 10:34:51 51°16.121 2°54.695 19.4037 4.273236 31.107234 2.252597
2005-08-04 10:35:52 51°16.145 2°54.623 19.4052 4.264835 31.03726 2.252597
2005-08-04 10:36:51 51°16.152 2°54.564 19.4087 4.275518 31.118823 2.252597
2005-08-04 10:37:51 51°16.17 2°54.53 19.4038 4.275414 31.120297 2.252597
2005-08-04 10:38:52 51°16.188 2°54.498 19.4016 4.276037 31.127669 2.252597
2005-08-04 10:39:51 51°16.202 2°54.459 19.405 4.277177 31.138098 2.252597
2005-08-04 10:40:51 51°16.211 2°54.417 19.3997 4.230195 30.753841 2.252597
2005-08-04 10:41:51 51°16.221 2°54.379 19.3911 4.220447 30.680505 2.252597
2005-08-04 10:42:52 51°16.234 2°54.35 19.3923 4.280185 31.170661 2.252597
2005-08-04 10:43:51 51°16.245 2°54.322 19.3967 4.281741 31.182146 2.252597
2005-08-04 10:44:51 51°16.255 2°54.304 19.3968 4.284956 31.204217 2.252597
2005-08-04 10:45:50 51°16.265 2°54.303 19.3903 4.287135 31.223084 2.252597
2005-08-04 10:46:52 51°16.274 2°54.32 19.3942 4.288898 31.238001 2.252597
2005-08-04 10:47:52 51°16.271 2°54.352 19.3815 4.28952 31.244224 2.252597
2005-08-04 10:48:52 51°16.254 2°54.375 19.3721 4.290039 31.263574 2.252597
2005-08-04 10:49:52 51°16.236 2°54.386 19.3799 4.29035 31.263193 2.252597
2005-08-04 10:50:52 51°16.241 2°54.419 19.3851 4.290869 31.265082 2.252597
2005-08-04 10:51:51 51°16.285 2°54.435 19.4 4.291802 31.26627 2.252597
2005-08-04 10:52:52 51°16.288 2°54.469 19.3911 4.291802 31.261613 2.252597
2005-08-04 10:53:52 51°16.294 2°54.443 19.3935 4.291076 31.258038 2.252597
2005-08-04 10:54:52 51°16.279 2°54.397 19.3736 4.292217 31.27372 2.252597
2005-08-04 10:55:51 51°16.271 2°54.358 19.3969 4.294188 31.288001 2.252597
2005-08-04 10:56:52 51°16.261 2°54.335 19.3993 4.297611 31.308264 2.252597
2005-08-04 10:57:51 51°16.257 2°54.32 19.3974 4.301241 31.335457 2.218888
2005-08-04 10:58:51 51°16.257 2°54.322 19.3946 4.304145 31.36083 2.252597
2005-08-04 10:59:52 51°16.256 2°54.339 19.3838 4.30539 31.373876 2.252597
2005-08-04 11:00:51 51°16.255 2°54.366 19.3831 4.305805 31.38251 2.252597
2005-08-04 11:01:52 51°16.256 2°54.401 19.382 4.306324 31.387899 2.218888
2005-08-04 11:02:51 51°16.257 2°54.44 19.3769 4.306116 31.390304 2.218888
2005-08-04 11:03:52 51°16.25 2°54.464 19.3722 4.306013 31.390044 2.252597
2005-08-04 11:04:52 51°16.247 2°54.423 19.3832 4.305494 31.385239 2.218888
2005-08-04 11:05:51 51°16.271 2°54.38 19.3756 4.30539 31.383225 2.252597
2005-08-04 11:06:52 51°16.295 2°54.34 19.3788 4.306946 31.399982 2.218888
2005-08-04 11:07:51 51°16.317 2°54.306 19.3643 4.311821 31.439667 2.218888
2005-08-04 11:08:52 51°16.339 2°54.268 19.3656 4.316282 31.481847 2.218888
2005-08-04 11:09:51 51°16.353 2°54.236 19.3925 4.321053 31.521885 2.218888
2005-08-04 11:10:51 51°16.368 2°54.207 19.4218 4.324476 31.51747 2.218888
2005-08-04 11:11:51 51°16.391 2°54.177 19.4219 4.325617 31.514439 2.252597
2005-08-04 11:12:51 51°16.417 2°54.146 19.4131 4.326446 31.523536 2.218888
2005-08-04 11:13:52 51°16.441 2°54.112 19.431 4.328314 31.538142 2.218888
2005-08-04 11:14:52 51°16.464 2°54.076 19.4229 4.328625 31.533634 2.218888
2005-08-04 11:15:52 51°16.486 2°54.039 19.4134 4.327069 31.526841 2.218888
2005-08-04 11:16:52 51°16.508 2°54.003 19.4063 4.325513 31.521805 2.218888
2005-08-04 11:17:52 51°16.532 2°53.965 19.4036 4.325306 31.524811 2.218888
2005-08-04 11:18:51 51°16.555 2°53.928 19.4028 4.325513 31.526499 2.218888
2005-08-04 11:19:52 51°16.576 2°53.892 19.4117 4.324891 31.520847 2.218888
2005-08-04 11:20:52 51°16.586 2°53.836 19.4208 4.324061 31.507643 2.218888
2005-08-04 11:21:51 51°16.522 2°53.869 19.4258 4.324268 31.502297 2.218888
2005-08-04 11:22:51 51°16.437 2°54.016 19.4433 4.325616 31.505648 2.218888
2005-08-04 11:23:51 51°16.349 2°54.149 19.4485 4.329351 31.528399 2.218888
2005-08-04 11:24:52 51°16.296 2°54.248 19.4629 4.338064 31.592224 2.218888
2005-08-04 11:25:51 51°16.256 2°54.306 19.4262 4.347193 31.66707 2.218888
2005-08-04 11:26:52 51°16.26 2°54.351 19.3997 4.345948 31.684627 2.218888
2005-08-04 11:27:51 51°16.266 2°54.394 19.3797 4.344185 31.685009 2.218888
2005-08-04 11:28:52 51°16.272 2°54.438 19.3672 4.342318 31.682187 2.218888
2005-08-04 11:29:52 51°16.27 2°54.477 19.3649 4.341073 31.680896 2.218888
2005-08-04 11:30:51 51°16.247 2°54.405 19.4096 4.339828 31.659541 2.218888
2005-08-04 11:31:52 51°16.351 2°54.243 19.4203 4.342214 31.66129 2.218888
2005-08-04 11:32:52 51°16.496 2°54.019 19.48 4.353106 31.711647 2.185178
2005-08-04 11:33:52 51°16.647 2°53.791 19.4733 4.338271 31.582171 2.218888
2005-08-04 11:34:52 51°16.794 2°53.558 19.4738 4.33101 31.51963 2.218888
2005-08-04 11:35:51 51°16.943 2°53.332 19.4907 4.328624 31.493806 2.185178
2005-08-04 11:36:51 51°17.105 2°53.117 19.4896 4.331425 31.515391 2.185178
2005-08-04 11:37:52 51°17.265 2°52.892 19.4948 4.334018 31.530023 2.185178
2005-08-04 11:38:51 51°17.411 2°52.659 19.5122 4.337026 31.546849 2.185178
2005-08-04 11:39:52 51°17.56 2°52.419 19.5307 4.352586 31.660356 2.185178
2005-08-04 11:40:52 51°17.712 2°52.185 19.5082 4.354246 31.664442 2.185178
2005-08-04 11:41:51 51°17.864 2°51.956 19.4034 4.353313 31.693896 2.185178
2005-08-04 11:42:51 51°18.018 2°51.725 19.404 4.355181 31.766324 2.185178
2005-08-04 11:43:51 51°18.173 2°51.494 19.4867 4.360368 31.800302 2.185178
2005-08-04 11:44:52 51°18.329 2°51.257 19.5244 4.358499 31.714287 2.185178
2005-08-04 11:45:52 51°18.431 2°51.101 19.5123 4.352378 31.657496 2.185178
2005-08-04 11:46:52 51°18.473 2°51.016 19.4863 4.356839 31.70668 2.185178
2005-08-04 11:47:51 51°18.492 2°51.013 19.4556 4.3585 31.744925 2.185178
2005-08-04 11:48:51 51°18.504 2°51.044 19.3938 4.359641 31.785513 2.185178
2005-08-04 11:49:51 51°18.513 2°51.081 19.3074 4.359123 31.813843 2.185178
2005-08-04 11:50:52 51°18.523 2°51.127 19.2339 4.359643 31.893535 2.185178
2005-08-04 11:51:51 51°18.533 2°51.173 19.2724 4.35705 31.902737 2.185178
2005-08-04 11:52:51 51°18.544 2°51.222 19.2809 4.355909 31.864802 2.185178
2005-08-04 11:53:52 51°18.556 2°51.27 19.351 4.354871 31.840266 2.185178
2005-08-04 11:54:52 51°18.561 2°51.302 19.3799 4.355389 31.798798 2.185178
2005-08-04 11:55:52 51°18.56 2°51.229 19.4228 4.356218 31.780692 2.185178
2005-08-04 11:56:51 51°18.611 2°51.157 19.4261 4.359019 31.781035 2.185178
2005-08-04 11:57:52 51°18.666 2°51.121 19.4185 4.362131 31.809934 2.185178
2005-08-04 11:58:51 51°18.714 2°51.092 19.4339 4.365866 31.839767 2.185178
2005-08-04 11:59:51 51°18.759 2°51.067 19.4525 4.368148 31.846512 2.185178
2005-08-04 12:00:52 51°18.805 2°51.051 19.4553 4.368978 31.840245 2.185178
2005-08-04 12:01:51 51°18.849 2°51.041 19.4578 4.369081 31.84109 2.151469
2005-08-04 12:02:52 51°18.894 2°51.031 19.4624 4.369081 31.842274 2.151469
2005-08-04 12:03:52 51°18.933 2°51.02 19.4663 4.369392 31.836523 2.151469
2005-08-04 12:04:52 51°18.974 2°51.013 19.4584 4.369911 31.844887 2.151469
2005-08-04 12:05:52 51°19.016 2°51.007 19.4694 4.369081 31.836356 2.151469
2005-08-04 12:06:51 51°19.056 2°51.002 19.4781 4.368874 31.826386 2.151469
2005-08-04 12:07:52 51°19.097 2°50.998 19.4847 4.368355 31.817436 2.151469
2005-08-04 12:08:52 51°19.141 2°50.988 19.4809 4.368251 31.81541 2.151469
2005-08-04 12:09:51 51°19.163 2°50.887 19.4794 4.367629 31.812118 2.151469
2005-08-04 12:10:52 51°19.067 2°50.873 19.4048 4.374891 31.876545 2.151469
2005-08-04 12:11:51 51°18.917 2°50.927 19.3643 4.404252 32.175488 2.151469
2005-08-04 12:12:53 51°18.755 2°50.967 19.3435 4.396056 32.128924 2.151469
2005-08-04 12:13:51 51°18.657 2°50.987 19.3517 4.385474 32.059241 2.151469
2005-08-04 12:14:52 51°18.588 2°50.998 19.3253 4.377382 31.991955 2.151469
2005-08-04 12:15:51 51°18.526 2°51.025 19.3421 4.372714 31.968144 2.151469
2005-08-04 12:16:52 51°18.498 2°51.032 19.4011 4.370639 31.916662 2.151469
2005-08-04 12:17:52 51°18.498 2°51.056 19.4072 4.371261 31.897374 2.151469
2005-08-04 12:18:51 51°18.496 2°51.08 19.4023 4.371157 31.895934 2.151469
2005-08-04 12:19:51 51°18.427 2°51.137 19.3808 4.370327 31.892137 2.151469
2005-08-04 12:20:51 51°18.263 2°51.338 19.4132 4.369601 31.882655 2.151469
2005-08-04 12:21:51 51°18.079 2°51.526 19.4047 4.375722 31.943259 2.151469
2005-08-04 12:22:50 51°17.899 2°51.706 19.4309 4.370845 31.883307 2.151469
2005-08-04 12:23:51 51°17.711 2°51.898 19.2864 4.372817 31.926108 2.151469
2005-08-04 12:24:52 51°17.519 2°52.057 19.2335 4.368254 31.980646 2.151469
2005-08-04 12:25:50 51°17.322 2°52.157 19.2247 4.367632 32.001279 2.151469
2005-08-04 12:26:52 51°17.111 2°52.264 19.2047 4.36369 31.974394 2.117759
2005-08-04 12:27:52 51°16.907 2°52.372 19.1795 4.363483 31.995451 2.151469
2005-08-04 12:28:51 51°16.711 2°52.483 19.1683 4.364417 32.012094 2.117759
2005-08-04 12:29:51 51°16.506 2°52.605 19.193 4.371783 32.080278 2.151469
2005-08-04 12:30:53 51°16.299 2°52.731 19.3246 4.372404 32.023571 2.151469
2005-08-04 12:31:52 51°16.101 2°52.878 19.4295 4.374685 31.967545 2.117759
2005-08-04 12:32:52 51°15.907 2°53.032 19.4467 4.372816 31.87624 2.151469
2005-08-04 12:33:51 51°15.716 2°53.179 19.5162 4.353313 31.700962 2.117759
2005-08-04 12:34:52 51°15.521 2°53.334 19.4788 4.352379 31.666896 2.117759
2005-08-04 12:35:51 51°15.347 2°53.531 19.4099 4.341176 31.605786 2.151469
2005-08-04 12:36:52 51°15.176 2°53.755 19.3267 4.327692 31.570675 2.117759
2005-08-04 12:37:51 51°15.003 2°53.973 19.5173 4.323335 31.506425 2.151469
2005-08-04 12:38:52 51°14.826 2°54.191 19.398 4.320222 31.447163 2.117759
2005-08-04 12:39:51 51°14.667 2°54.435 19.4211 4.328936 31.546728 2.117759
2005-08-04 12:40:51 51°14.518 2°54.708 19.3953 4.324372 31.511934 2.117759
2005-08-04 12:41:52 51°14.391 2°54.999 19.4125 4.310887 31.399314 2.117759
2005-08-04 12:42:52 51°14.284 2°55.225 19.5786 4.3057 31.325673 2.117759
2005-08-04 12:43:50 51°14.169 2°55.385 19.6682 4.180001 30.198414 2.117759
2005-08-04 12:44:51 51°14.055 2°55.471 19.6327 4.067089 29.252642 2.117759
2005-08-04 12:45:51 51°13.959 2°55.542 19.6447 4.020544 28.901022 2.117759
2005-08-04 12:46:52 51°13.861 2°55.619 19.6291 3.994008 28.668743 2.117759
2005-08-04 12:47:51 51°13.78 2°55.687 19.7113 3.978461 28.556207 2.117759
2005-08-04 12:48:52 51°13.738 2°55.699 19.8468 3.895963 27.845698 2.117759
2005-08-04 12:49:53 51°13.736 2°55.694 19.7275 3.801876 27.038071 2.117759
2005-08-04 12:50:53 51°13.737 2°55.715 19.677 3.932028 28.153099 2.117759
2005-08-04 12:51:50 51°13.736 2°55.712 19.733 3.934619 28.17632 2.117759
2005-08-04 12:52:52 51°13.71 2°55.789 19.6488 3.839592 27.38784 2.117759
2005-08-04 12:53:53 51°13.669 2°55.883 19.6242 3.981467 28.609245 2.117759
2005-08-04 12:54:51 51°13.653 2°55.911 19.7949 3.881766 27.763102 2.117759
2005-08-04 12:55:52 51°13.668 2°55.902 19.8539 3.733293 26.496807 2.117759
2005-08-04 12:56:51 51°13.689 2°55.884 19.8102 3.746138 26.58628 2.117759
2005-08-04 12:57:52 51°13.686 2°55.886 19.7462 3.776907 26.846931 2.117759
2005-08-04 12:58:52 51°13.692 2°55.884 19.6758 3.909435 27.96715 2.117759
2005-08-04 12:59:52 51°13.693 2°55.885 19.6487 3.92467 28.113177 2.117759
2005-08-04 13:00:51 51°13.694 2°55.887 19.6367 3.93151 28.180644 2.117759
2005-08-04 13:01:52 51°13.693 2°55.891 19.6505 3.946745 28.312018 2.117759
2005-08-16 09:30:00 51°13.691 2°55.896 -999 0.058909 0.329928 -0.983506
2005-08-16 09:31:00 51°13.69 2°55.895 -999 0.058909 0.329928 -0.983506
2005-08-16 09:32:00 51°13.691 2°55.894 -999 0.058909 0.329928 -0.983506
2005-08-16 09:33:00 51°13.691 2°55.894 -999 0.058909 0.329928 -0.983506
2005-08-16 09:34:00 51°13.691 2°55.894 -999 0.058909 0.329928 -0.983506
2005-08-16 09:35:00 51°13.691 2°55.894 -999 0.058909 0.329928 -0.983506
2005-08-16 09:36:00 51°13.691 2°55.895 -999 0.059012 0.330521 -0.983506
2005-08-16 09:37:00 51°13.691 2°55.895 -999 0.058909 0.329921 -0.983506
2005-08-16 09:38:00 51°13.69 2°55.896 -999 0.058909 0.329928 -0.983506
2005-08-16 09:39:00 51°13.69 2°55.896 -999 0.058909 0.329928 -0.983506
2005-08-16 09:40:00 51°13.69 2°55.896 -999 0.058909 0.329921 -0.983506
2005-08-16 09:41:00 51°13.69 2°55.896 -999 0.058909 0.329921 -0.983506
2005-08-16 09:42:00 51°13.691 2°55.895 -999 0.059012 0.330515 -0.983506
2005-08-16 09:43:00 51°13.69 2°55.895 -999 0.059012 0.330515 -0.983506
2005-08-16 09:44:00 51°13.69 2°55.895 -999 0.059012 0.330509 -0.983506
2005-08-16 09:45:00 51°13.691 2°55.895 -999 0.059012 0.330509 -0.983506
2005-08-16 09:46:00 51°13.691 2°55.895 -999 0.058909 0.329915 -0.983506
2005-08-16 09:47:00 51°13.691 2°55.895 -999 0.058909 0.329915 -0.983506
2005-08-16 09:48:00 51°13.691 2°55.896 -999 0.058909 0.329915 -0.983506
2005-08-16 09:49:00 51°13.69 2°55.896 -999 0.059012 0.330503 -0.983506
2005-08-16 09:50:00 51°13.69 2°55.896 -999 0.059012 0.330503 -0.983506
2005-08-16 09:51:00 51°13.69 2°55.896 -999 0.059012 0.330503 -0.983506
2005-08-16 09:52:00 51°13.69 2°55.896 -999 0.059012 0.330497 -0.983506
2005-08-16 09:53:00 51°13.69 2°55.896 -999 0.059012 0.330491 -0.983506
2005-08-16 09:54:00 51°13.69 2°55.896 -999 0.059012 0.330491 -0.983506
2005-08-16 09:55:00 51°13.69 2°55.896 -999 0.058909 0.329891 -0.983506
2005-08-16 09:56:00 51°13.69 2°55.895 -999 0.059012 0.330485 -0.983506
2005-08-16 09:57:00 51°13.691 2°55.895 -999 0.059012 0.330479 -0.983506
2005-08-16 09:58:00 51°13.692 2°55.895 -999 0.059012 0.330479 -0.983506
2005-08-16 09:59:00 51°13.691 2°55.895 -999 0.059012 0.330473 -0.983506
2005-08-16 10:00:00 51°13.691 2°55.896 -999 0.059012 0.330467 -0.983506
2005-08-16 10:01:00 51°13.69 2°55.896 -999 0.059012 0.330467 -0.983506
2005-08-16 10:02:00 51°13.69 2°55.897 -999 0.059012 0.330461 -0.983506
2005-08-16 10:03:00 51°13.691 2°55.897 -999 0.059012 0.330455 -0.983506
2005-08-16 10:04:00 51°13.69 2°55.896 -999 0.059012 0.330455 -0.983506
2005-08-16 10:05:00 51°13.69 2°55.897 -999 0.059012 0.330449 -0.983506
2005-08-16 10:06:00 51°13.69 2°55.896 -999 0.059012 0.330449 -0.983506
2005-08-16 10:07:00 51°13.69 2°55.896 -999 0.059012 0.330443 -0.983506
2005-08-16 10:08:00 51°13.69 2°55.896 -999 0.059012 0.330437 -0.983506
2005-08-16 10:09:00 51°13.691 2°55.896 -999 0.059012 0.330431 -0.983506
2005-08-16 10:10:00 51°13.691 2°55.896 -999 0.059012 0.330425 -0.983506
2005-08-16 10:11:00 51°13.692 2°55.896 -999 0.059012 0.330425 -0.983506
2005-08-16 10:12:00 51°13.692 2°55.896 -999 0.059012 0.330412 -0.983506
2005-08-16 10:13:00 51°13.692 2°55.897 -999 0.059012 0.330412 -0.983506
2005-08-16 10:14:00 51°13.692 2°55.896 -999 0.059012 0.330406 -0.983506
2005-08-16 10:15:00 51°13.692 2°55.896 -999 0.059012 0.3304 -0.983506
2005-08-16 10:16:00 51°13.692 2°55.896 -999 0.059012 0.330388 -0.983506
2005-08-16 10:17:00 51°13.692 2°55.896 -999 0.059012 0.330382 -0.983506
2005-08-16 10:18:00 51°13.692 2°55.897 -999 0.059012 0.330382 -0.983506
2005-08-16 10:19:00 51°13.692 2°55.896 -999 0.059012 0.33037 -0.983506
2005-08-16 10:20:00 51°13.692 2°55.896 -999 0.059012 0.330364 -0.983506
2005-08-16 10:21:00 51°13.692 2°55.895 -999 0.059012 0.330358 -0.983506
2005-08-16 10:22:00 51°13.692 2°55.895 -999 0.059012 0.330346 -0.983506
2005-08-16 10:23:00 51°13.692 2°55.894 -999 0.059012 0.33034 -0.983506
2005-08-16 10:24:00 51°13.691 2°55.894 -999 0.059012 0.330334 -0.983506
2005-08-16 10:25:00 51°13.691 2°55.895 -999 0.059012 0.330328 -0.983506
2005-08-16 10:26:00 51°13.692 2°55.895 -999 0.059012 0.330316 -0.983506
2005-08-16 10:27:00 51°13.692 2°55.895 -999 0.059012 0.33031 -0.983506
2005-08-16 10:28:00 51°13.691 2°55.895 -999 0.059012 0.330304 -0.983506
2005-08-16 10:29:00 51°13.692 2°55.894 -999 0.059012 0.330292 -0.983506
2005-08-16 10:30:00 51°13.692 2°55.894 -999 0.059012 0.330286 -0.983506
2005-08-16 10:31:00 51°13.691 2°55.894 -999 0.059012 0.33028 -0.983506
2005-08-16 10:32:00 51°13.691 2°55.894 -999 0.059012 0.330268 -0.983506
2005-08-16 10:33:00 51°13.691 2°55.894 -999 0.059012 0.330256 -0.983506
2005-08-16 10:34:00 51°13.691 2°55.894 -999 0.059012 0.33025 -0.983506
2005-08-16 10:35:00 51°13.692 2°55.894 -999 0.059012 0.330244 -1.017215
2005-08-16 10:36:00 51°13.692 2°55.894 -999 0.059012 0.330232 -0.983506
2005-08-16 10:37:00 51°13.691 2°55.894 -999 0.059012 0.33022 -0.983506
2005-08-16 10:38:00 51°13.691 2°55.894 -999 0.059012 0.330214 -0.983506
2005-08-16 10:39:00 51°13.691 2°55.895 -999 0.059012 0.330201 -0.983506
2005-08-16 10:40:00 51°13.691 2°55.895 -999 0.059012 0.330189 -0.983506
2005-08-16 10:41:00 51°13.691 2°55.895 -999 0.059012 0.330177 -0.983506
2005-08-16 10:42:00 51°13.691 2°55.895 -999 0.059012 0.330171 -0.983506
2005-08-16 10:43:00 51°13.691 2°55.894 -999 0.059012 0.330159 -0.983506
2005-08-16 10:44:00 51°13.691 2°55.895 -999 0.059012 0.330147 -0.983506
2005-08-16 10:45:00 51°13.691 2°55.895 -999 0.059012 0.330141 -1.017215
2005-08-16 10:46:00 51°13.691 2°55.895 -999 0.059012 0.330129 -0.983506
2005-08-16 10:47:00 51°13.691 2°55.896 -999 0.059012 0.330117 -0.983506
2005-08-16 10:48:00 51°13.691 2°55.895 -999 0.059012 0.330111 -0.983506
2005-08-16 10:49:00 51°13.691 2°55.895 -999 0.059115 0.330692 -0.983506
2005-08-16 10:50:00 51°13.691 2°55.895 -999 0.059012 0.330087 -0.983506
2005-08-16 10:51:00 51°13.691 2°55.895 -999 0.059115 0.330668 -0.983506
2005-08-16 10:52:00 51°13.691 2°55.895 -999 0.059115 0.330656 -0.983506
2005-08-16 10:53:00 51°13.691 2°55.895 -999 0.059115 0.330644 -0.983506
2005-08-16 10:54:00 51°13.691 2°55.895 -999 0.059115 0.330638 -0.983506
2005-08-16 10:55:00 51°13.691 2°55.895 -999 0.059115 0.330626 -0.983506
2005-08-16 10:56:00 51°13.691 2°55.894 -999 0.059115 0.330614 -0.983506
2005-08-16 10:57:00 51°13.691 2°55.894 -999 0.059115 0.330595 -0.983506
2005-08-16 10:58:00 51°13.691 2°55.894 -999 0.059115 0.330589 -0.983506
2005-08-16 10:59:00 51°13.691 2°55.895 -999 0.059115 0.330577 -0.983506
2005-08-16 11:00:00 51°13.691 2°55.895 -999 0.059115 0.330565 -0.983506
2005-08-16 11:01:00 51°13.691 2°55.896 -999 0.059115 0.330547 -1.017215
2005-08-16 11:02:00 51°13.692 2°55.896 -999 0.059115 0.330535 -0.983506
2005-08-16 11:03:00 51°13.691 2°55.896 -999 0.059115 0.330523 -0.983506
2005-08-16 11:04:00 51°13.691 2°55.895 -999 0.059115 0.330505 -1.017215
2005-08-16 11:05:00 51°13.691 2°55.895 -999 0.059115 0.330493 -0.983506
2005-08-16 11:06:00 51°13.692 2°55.895 -999 0.059115 0.330481 -0.983506
2005-08-16 11:07:00 51°13.692 2°55.895 -999 0.059115 0.330469 -0.983506
2005-08-16 11:08:00 51°13.692 2°55.895 -999 0.059115 0.330451 -0.983506
2005-08-16 11:09:00 51°13.691 2°55.895 -999 0.059115 0.330439 -0.983506
2005-08-16 11:10:00 51°13.691 2°55.896 -999 0.059115 0.330427 -0.983506
2005-08-16 11:11:00 51°13.691 2°55.896 -999 0.059115 0.330409 -0.983506
2005-08-16 11:12:00 51°13.691 2°55.895 -999 0.059115 0.330397 -0.983506
2005-08-16 11:13:00 51°13.692 2°55.895 -999 0.059115 0.330379 -1.017215
2005-08-16 11:14:00 51°13.691 2°55.895 -999 0.059115 0.330367 -0.983506
2005-08-16 11:15:00 51°13.691 2°55.895 -999 0.059115 0.330349 -0.983506
2005-08-16 11:16:00 51°13.691 2°55.895 -999 0.059115 0.330337 -1.017215
2005-08-16 11:17:00 51°13.691 2°55.895 -999 0.059115 0.330318 -0.983506
2005-08-16 11:18:00 51°13.691 2°55.894 -999 0.059115 0.330306 -0.983506
2005-08-16 11:19:00 51°13.69 2°55.894 -999 0.059115 0.330288 -1.017215
2005-08-16 11:20:00 51°13.691 2°55.895 -999 0.059115 0.33027 -0.983506
2005-08-16 11:21:00 51°13.691 2°55.896 -999 0.059115 0.330252 -0.983506
2005-08-16 11:22:00 51°13.691 2°55.895 -999 0.059218 0.330832 -0.983506
2005-08-16 11:23:00 51°13.692 2°55.896 -999 0.059218 0.33082 -0.983506
2005-08-16 11:24:00 51°13.691 2°55.896 -999 0.059115 0.33021 -1.017215
2005-08-16 11:25:00 51°13.692 2°55.896 -999 0.059218 0.330784 -0.983506
2005-08-16 11:26:00 51°13.692 2°55.896 -999 0.059218 0.330766 -0.983506
2005-08-16 11:27:00 51°13.691 2°55.896 -999 0.059218 0.330754 -0.983506
2005-08-16 11:28:00 51°13.691 2°55.896 -999 0.059218 0.330736 -1.017215
2005-08-16 11:29:00 51°13.691 2°55.896 -999 0.059218 0.330724 -1.017215
2005-08-16 11:30:00 51°13.692 2°55.896 -999 0.059218 0.330706 -0.983506
2005-08-16 11:31:00 51°13.691 2°55.896 -999 0.059218 0.330682 -1.017215
2005-08-16 11:32:00 51°13.691 2°55.896 -999 0.059218 0.33067 -0.983506
2005-08-16 11:33:00 51°13.691 2°55.896 -999 0.059218 0.330652 -0.983506
2005-08-16 11:34:00 51°13.692 2°55.896 -999 0.059218 0.330634 -1.017215
2005-08-16 11:35:00 51°13.691 2°55.896 -999 0.059218 0.330616 -0.983506
2005-08-16 11:36:00 51°13.691 2°55.897 -999 0.059218 0.330598 -0.983506
2005-08-16 11:37:00 51°13.691 2°55.897 -999 0.059218 0.330586 -0.983506
2005-08-16 11:38:00 51°13.69 2°55.896 -999 0.059218 0.330562 -0.983506
2005-08-16 11:39:00 51°13.69 2°55.895 -999 0.059218 0.330544 -0.983506
2005-08-16 11:40:00 51°13.69 2°55.895 -999 0.059218 0.330526 -1.017215
2005-08-16 11:41:00 51°13.691 2°55.896 -999 0.059218 0.330507 -0.983506
2005-08-16 11:42:00 51°13.69 2°55.896 -999 0.059218 0.330489 -0.983506
2005-08-16 11:43:00 51°13.69 2°55.894 -999 0.059218 0.330471 -0.983506
2005-08-16 11:44:00 51°13.703 2°55.856 -999 0.059218 0.330453 -1.017215
2005-08-16 11:45:00 51°13.698 2°55.757 -999 0.059218 0.330441 -1.017215
2005-08-16 11:46:00 51°13.708 2°55.754 -999 0.059218 0.330297 -0.983506
2005-08-16 11:47:00 51°13.705 2°55.752 -999 0.05932 0.330991 -0.983506
2005-08-16 11:48:00 51°13.707 2°55.753 -999 0.059218 0.330345 -0.983506
2005-08-16 11:49:00 51°13.682 2°55.824 -999 0.059218 0.330345 -0.983506
2005-08-16 11:50:00 51°13.654 2°55.916 -999 0.05932 0.330943 -0.983506
2005-08-16 11:51:00 51°13.628 2°56.002 -999 0.05932 0.330919 -0.983506
2005-08-16 11:52:00 51°13.613 2°56.057 -999 0.05932 0.330876 -1.017215
2005-08-16 11:53:00 51°13.61 2°56.065 -999 0.05932 0.330858 -0.983506
2005-08-16 11:54:00 51°13.61 2°56.066 -999 0.05932 0.330846 -0.983506
2005-08-16 11:55:00 51°13.61 2°56.065 -999 0.05932 0.330822 -0.983506
2005-08-16 11:56:00 51°13.609 2°56.065 -999 0.05932 0.330798 -1.017215
2005-08-16 11:57:00 51°13.609 2°56.065 -999 0.05932 0.330768 -0.983506
2005-08-16 11:58:00 51°13.609 2°56.066 -999 0.05932 0.330744 -0.983506
2005-08-16 11:59:00 51°13.609 2°56.065 -999 0.05932 0.330714 -0.983506
2005-08-16 12:00:00 51°13.609 2°56.065 -999 0.05932 0.330684 -0.983506
2005-08-16 12:01:00 51°13.609 2°56.065 -999 0.05932 0.33066 -0.983506
2005-08-16 12:02:00 51°13.609 2°56.066 -999 0.05932 0.33063 -0.983506
2005-08-16 12:03:00 51°13.609 2°56.066 -999 0.05932 0.3306 -0.983506
2005-08-16 12:04:00 51°13.609 2°56.066 -999 0.05932 0.330576 -0.983506
2005-08-16 12:05:00 51°13.607 2°56.071 -999 0.05932 0.330546 -0.983506
2005-08-16 12:06:00 51°13.604 2°56.076 -999 0.05932 0.330516 -0.983506
2005-08-16 12:07:00 51°13.599 2°56.079 -999 0.05932 0.330486 -0.983506
2005-08-16 12:08:00 51°13.597 2°56.087 -999 0.059423 0.331047 -0.983506
2005-08-16 12:09:00 51°13.595 2°56.094 -999 0.059423 0.331017 -0.983506
2005-08-16 12:10:00 51°13.596 2°56.097 -999 0.059423 0.330987 -0.983506
2005-08-16 12:11:00 51°13.597 2°56.097 -999 0.059423 0.330957 -0.983506
2005-08-16 12:12:00 51°13.596 2°56.099 -999 0.059423 0.330927 -1.017215
2005-08-16 12:13:00 51°13.595 2°56.103 -999 0.059423 0.330897 -1.017215